createdAt,value
2022-09-23T00:02:19.213Z,5.10
2022-09-23T00:04:49.230Z,5.68
2022-09-23T00:07:19.285Z,5.60
2022-09-23T00:09:49.347Z,7.20
2022-09-23T00:12:19.350Z,6.80
2022-09-23T00:14:49.347Z,6.50
2022-09-23T00:17:19.350Z,7.68
2022-09-23T00:19:49.939Z,7.57
2022-09-23T00:22:19.973Z,7.30
2022-09-23T00:24:49.932Z,8.10
2022-09-23T00:27:22.287Z,9.23
2022-09-23T00:29:52.456Z,7.72
2022-09-23T00:32:22.993Z,8.23
2022-09-23T00:34:53.889Z,7.55
2022-09-23T00:37:24.118Z,8.50
2022-09-23T00:39:54.124Z,8.80
2022-09-23T00:42:24.880Z,7.57
2022-09-23T00:44:56.068Z,9.25
2022-09-23T00:47:41.605Z,8.90
2022-09-23T00:50:12.655Z,8.02
2022-09-23T00:52:42.775Z,8.15
2022-09-23T00:55:17.898Z,8.32
2022-09-23T00:57:47.887Z,8.20
2022-09-23T01:00:17.934Z,7.40
2022-09-23T01:02:48.351Z,7.90
2022-09-23T01:05:18.718Z,8.52
2022-09-23T01:07:49.394Z,8.70
2022-09-23T01:10:19.746Z,8.30
2022-09-23T01:13:01.068Z,8.70
2022-09-23T01:15:41.832Z,7.13
2022-09-23T01:18:22.345Z,6.50
2022-09-23T01:20:55.585Z,6.20
2022-09-23T01:23:37.979Z,5.00
2022-09-23T01:26:08.012Z,5.18
2022-09-23T01:28:56.422Z,6.00
2022-09-23T01:31:36.282Z,6.00
2022-09-23T01:34:12.953Z,8.30
2022-09-23T01:36:47.745Z,5.15
2022-09-23T01:39:36.906Z,5.32
2022-09-23T01:42:07.411Z,5.53
2022-09-23T01:44:40.457Z,5.53
2022-09-23T01:47:15.609Z,5.10
2022-09-23T01:50:25.507Z,5.65
2022-09-23T01:52:55.701Z,6.70
2022-09-23T01:55:29.622Z,6.45
2022-09-23T01:58:05.250Z,7.32
2022-09-23T02:00:36.905Z,6.93
2022-09-23T02:03:10.024Z,8.18
2022-09-23T02:05:41.192Z,7.47
2022-09-23T02:08:12.280Z,7.13
2022-09-23T02:10:45.381Z,7.47
2022-09-23T02:13:20.577Z,7.45
2022-09-23T02:15:52.078Z,8.00
2022-09-23T02:18:24.240Z,6.88
2022-09-23T02:20:55.346Z,7.82
2022-09-23T02:23:36.550Z,7.03
2022-09-23T02:26:29.656Z,6.97
2022-09-23T02:28:59.730Z,5.20
2022-09-23T02:31:30.596Z,4.88
2022-09-23T02:34:03.091Z,6.18
2022-09-23T02:36:56.150Z,4.63
2022-09-23T02:39:26.284Z,4.40
2022-09-23T02:42:07.309Z,4.93
2022-09-23T02:44:37.661Z,4.60
2022-09-23T02:47:07.772Z,4.50
2022-09-23T02:49:37.835Z,3.65
2022-09-23T02:52:08.921Z,4.38
2022-09-23T02:54:39.102Z,4.25
2022-09-23T02:57:09.221Z,4.78
2022-09-23T02:59:39.593Z,5.25
2022-09-23T03:02:18.520Z,4.00
2022-09-23T03:04:48.831Z,4.50
2022-09-23T03:07:37.335Z,3.17
2022-09-23T03:10:10.831Z,3.80
2022-09-23T03:12:54.063Z,4.13
2022-09-23T03:15:36.682Z,4.00
2022-09-23T03:18:18.524Z,3.10
2022-09-23T03:20:52.423Z,3.47
2022-09-23T03:23:26.873Z,5.07
2022-09-23T03:25:57.871Z,2.72
2022-09-23T03:28:28.513Z,3.03
2022-09-23T03:31:01.122Z,3.10
2022-09-23T03:33:31.940Z,3.00
2022-09-23T03:36:22.693Z,3.72
2022-09-23T03:38:55.342Z,2.95
2022-09-23T03:41:30.212Z,3.22
2022-09-23T03:44:00.810Z,10.88
2022-09-23T03:46:31.334Z,8.40
2022-09-23T03:49:21.417Z,7.03
2022-09-23T03:51:51.542Z,10.73
2022-09-23T03:54:21.838Z,13.55
2022-09-23T03:56:52.025Z,12.70
2022-09-23T03:59:24.163Z,11.73
2022-09-23T04:01:54.489Z,14.13
2022-09-23T04:04:24.826Z,10.88
2022-09-23T04:06:55.514Z,12.15
2022-09-23T04:09:25.651Z,11.20
2022-09-23T04:11:56.050Z,13.30
2022-09-23T04:14:26.119Z,17.45
2022-09-23T04:16:56.410Z,16.35
2022-09-23T04:19:26.458Z,18.05
2022-09-23T04:21:56.827Z,12.38
2022-09-23T04:24:26.904Z,17.55
2022-09-23T04:26:57.955Z,13.82
2022-09-23T04:29:27.951Z,17.88
2022-09-23T04:31:59.533Z,16.75
2022-09-23T04:34:29.576Z,16.60
2022-09-23T04:36:59.616Z,23.73
2022-09-23T04:39:29.633Z,21.13
2022-09-23T04:42:00.915Z,16.08
2022-09-23T04:44:30.904Z,19.40
2022-09-23T04:47:02.485Z,14.57
2022-09-23T04:49:33.597Z,15.93
2022-09-23T04:52:06.707Z,11.75
2022-09-23T04:54:36.779Z,10.65
2022-09-23T04:57:07.225Z,11.80
2022-09-23T04:59:37.229Z,7.82
2022-09-23T05:02:08.698Z,6.57
2022-09-23T05:04:39.334Z,6.28
2022-09-23T05:07:09.369Z,8.75
2022-09-23T05:09:39.914Z,7.82
2022-09-23T05:12:10.407Z,5.85
2022-09-23T05:14:40.418Z,5.90
2022-09-23T05:17:10.431Z,5.80
2022-09-23T05:19:40.438Z,4.65
2022-09-23T05:22:10.400Z,4.18
2022-09-23T05:24:40.465Z,6.57
2022-09-23T05:27:10.566Z,5.85
2022-09-23T05:29:40.628Z,5.32
2022-09-23T05:32:10.968Z,5.25
2022-09-23T05:34:41.002Z,3.50
2022-09-23T05:37:11.392Z,2.35
2022-09-23T05:39:41.581Z,2.42
2022-09-23T05:42:13.676Z,2.00
2022-09-23T05:44:43.736Z,1.15
2022-09-23T05:47:14.401Z,3.45
2022-09-23T05:49:59.114Z,2.03
2022-09-23T05:52:30.740Z,1.67
2022-09-23T05:55:00.735Z,1.90
2022-09-23T05:57:31.533Z,1.88
2022-09-23T06:00:01.614Z,3.85
2022-09-23T06:02:42.992Z,1.98
2022-09-23T06:05:13.481Z,1.10
2022-09-23T06:07:43.726Z,2.60
2022-09-23T06:10:13.809Z,0.77
2022-09-23T06:12:46.322Z,4.18
2022-09-23T06:15:17.206Z,2.88
2022-09-23T06:17:47.914Z,1.95
2022-09-23T06:20:18.003Z,1.80
2022-09-23T06:22:51.594Z,1.55
2022-09-23T06:25:24.220Z,1.38
2022-09-23T06:27:57.691Z,1.00
2022-09-23T06:30:28.067Z,1.80
2022-09-23T06:32:59.858Z,2.45
2022-09-23T06:35:30.129Z,2.75
2022-09-23T06:38:00.412Z,5.03
2022-09-23T06:40:30.483Z,6.32
2022-09-23T06:43:02.037Z,3.78
2022-09-23T06:45:32.187Z,3.22
2022-09-23T06:48:06.176Z,4.95
2022-09-23T06:50:36.313Z,3.80
2022-09-23T06:53:07.154Z,3.58
2022-09-23T06:55:37.319Z,1.67
2022-09-23T06:58:07.401Z,1.77
2022-09-23T07:00:37.852Z,1.17
2022-09-23T07:03:11.786Z,2.30
2022-09-23T07:05:41.837Z,2.33
2022-09-23T07:08:11.840Z,0.95
2022-09-23T07:10:42.008Z,0.85
2022-09-23T07:13:16.279Z,0.90
2022-09-23T07:15:52.014Z,1.40
2022-09-23T07:18:24.898Z,11.55
2022-09-23T07:20:55.149Z,9.77
2022-09-23T07:23:26.171Z,4.30
2022-09-23T07:25:56.190Z,3.90
2022-09-23T07:28:28.432Z,5.88
2022-09-23T07:31:00.689Z,3.58
2022-09-23T07:33:33.616Z,2.10
2022-09-23T07:36:07.706Z,2.67
2022-09-23T07:38:41.643Z,4.23
2022-09-23T07:41:16.660Z,1.90
2022-09-23T07:43:47.775Z,1.55
2022-09-23T07:46:18.536Z,1.70
2022-09-23T07:48:49.588Z,2.67
2022-09-23T07:51:21.352Z,1.30
2022-09-23T07:53:52.827Z,1.15
2022-09-23T07:56:23.788Z,1.13
2022-09-23T07:59:06.178Z,6.70
2022-09-23T08:01:38.034Z,2.78
2022-09-23T08:04:12.262Z,8.10
2022-09-23T08:06:43.706Z,7.00
2022-09-23T08:09:14.180Z,1.60
2022-09-23T08:11:44.121Z,1.30
2022-09-23T08:14:15.368Z,1.35
2022-09-23T08:16:46.592Z,1.55
2022-09-23T08:19:17.935Z,10.00
2022-09-23T08:21:48.789Z,6.95
2022-09-23T08:24:20.346Z,4.80
2022-09-23T08:26:50.524Z,5.80
2022-09-23T08:29:20.739Z,5.55
2022-09-23T08:31:50.989Z,1.88
2022-09-23T08:34:22.046Z,1.63
2022-09-23T08:36:53.491Z,3.05
2022-09-23T08:39:24.397Z,1.30
2022-09-23T08:42:29.810Z,1.50
2022-09-23T08:45:00.508Z,2.22
2022-09-23T08:47:33.750Z,0.90
2022-09-23T08:50:20.154Z,1.33
2022-09-23T08:52:56.171Z,1.30
2022-09-23T08:55:30.981Z,1.30
2022-09-23T08:58:25.665Z,0.90
2022-09-23T09:00:56.494Z,0.70
2022-09-23T09:03:26.905Z,0.85
2022-09-23T09:05:58.141Z,1.10
2022-09-23T09:08:30.891Z,1.08
2022-09-23T09:11:01.501Z,0.70
2022-09-23T09:13:33.081Z,1.85
2022-09-23T09:16:13.134Z,2.00
2022-09-23T09:18:46.429Z,1.00
2022-09-23T09:21:17.230Z,3.60
2022-09-23T09:23:59.652Z,4.95
2022-09-23T09:26:30.570Z,5.90
2022-09-23T09:29:17.094Z,8.05
2022-09-23T09:31:53.835Z,5.25
2022-09-23T09:34:27.569Z,7.07
2022-09-23T09:37:09.498Z,2.00
2022-09-23T09:39:40.278Z,1.52
2022-09-23T09:42:12.457Z,1.90
2022-09-23T09:45:01.768Z,4.18
2022-09-23T09:47:37.914Z,4.03
2022-09-23T09:50:22.711Z,2.30
2022-09-23T09:52:57.275Z,2.45
2022-09-23T09:55:28.556Z,1.65
2022-09-23T09:58:02.788Z,1.60
2022-09-23T10:00:33.006Z,4.32
2022-09-23T10:03:15.183Z,2.70
2022-09-23T10:05:48.541Z,1.50
2022-09-23T10:08:37.184Z,2.28
2022-09-23T10:11:10.862Z,2.70
2022-09-23T10:13:41.182Z,2.35
2022-09-23T10:16:11.398Z,2.47
2022-09-23T10:18:54.515Z,5.57
2022-09-23T10:21:27.955Z,4.32
2022-09-23T10:23:59.379Z,3.95
2022-09-23T10:26:33.719Z,3.58
2022-09-23T10:29:07.274Z,3.15
2022-09-23T10:31:37.752Z,2.55
2022-09-23T10:34:28.399Z,2.85
2022-09-23T10:37:04.261Z,2.55
2022-09-23T10:39:52.612Z,2.13
2022-09-23T10:42:56.573Z,3.00
2022-09-23T10:45:47.205Z,2.67
2022-09-23T10:48:23.574Z,3.13
2022-09-23T10:50:57.555Z,2.88
2022-09-23T10:53:32.123Z,3.05
2022-09-23T10:56:17.302Z,3.35
2022-09-23T10:58:59.386Z,3.50
2022-09-23T11:01:29.397Z,3.42
2022-09-23T11:04:01.425Z,2.65
2022-09-23T11:06:44.855Z,3.42
2022-09-23T11:09:27.169Z,3.13
2022-09-23T11:12:00.975Z,3.00
2022-09-23T11:14:41.895Z,3.83
2022-09-23T11:17:18.196Z,3.33
2022-09-23T11:19:57.688Z,3.30
2022-09-23T11:22:33.411Z,3.63
2022-09-23T11:25:26.776Z,3.57
2022-09-23T11:28:02.815Z,4.07
2022-09-23T11:30:38.828Z,3.28
2022-09-23T11:33:15.344Z,4.03
2022-09-23T11:35:50.350Z,6.25
2022-09-23T11:38:27.321Z,7.88
2022-09-23T11:43:29.921Z,11.38
2022-09-23T11:46:04.855Z,7.60
2022-09-23T11:48:45.402Z,6.20
2022-09-23T11:51:22.319Z,14.90
2022-09-23T11:53:55.417Z,22.98
2022-09-23T11:56:38.822Z,23.70
2022-09-23T11:59:40.242Z,26.48
2022-09-23T12:02:20.866Z,26.98
2022-09-23T12:05:03.859Z,28.15
2022-09-23T12:07:56.938Z,26.20
2022-09-23T12:10:29.952Z,21.88
2022-09-23T12:12:59.964Z,18.80
2022-09-23T12:15:37.324Z,17.67
2022-09-23T12:18:22.955Z,18.90
2022-09-23T12:21:00.539Z,19.52
2022-09-23T12:23:30.842Z,16.65
2022-09-23T12:26:05.910Z,17.00
2022-09-23T12:28:40.230Z,13.10
2022-09-23T12:31:14.669Z,13.02
2022-09-23T12:33:51.133Z,13.20
2022-09-23T12:36:42.352Z,16.02
2022-09-23T12:39:32.502Z,13.88
2022-09-23T12:42:06.325Z,14.90
2022-09-23T12:44:40.392Z,14.38
2022-09-23T12:47:22.371Z,17.75
2022-09-23T12:49:52.485Z,17.33
2022-09-23T12:52:22.406Z,18.95
2022-09-23T12:54:52.538Z,19.55
2022-09-23T12:57:37.978Z,18.10
2022-09-23T13:00:14.667Z,19.90
2022-09-23T13:02:44.670Z,20.77
2022-09-23T13:05:36.565Z,20.88
2022-09-23T13:08:16.966Z,21.38
2022-09-23T13:10:51.953Z,20.50
2022-09-23T13:13:32.885Z,18.23
2022-09-23T13:16:21.693Z,18.67
2022-09-23T13:18:53.664Z,15.52
2022-09-23T13:21:44.205Z,15.07
2022-09-23T13:24:33.427Z,16.73
2022-09-23T13:27:08.023Z,13.35
2022-09-23T13:29:39.473Z,14.48
2022-09-23T13:32:20.615Z,12.52
2022-09-23T13:35:11.114Z,12.55
2022-09-23T13:37:45.743Z,12.63
2022-09-23T13:40:20.633Z,12.00
2022-09-23T13:42:51.833Z,12.45
2022-09-23T13:45:23.251Z,11.57
2022-09-23T13:47:54.081Z,12.00
2022-09-23T13:50:24.974Z,12.27
2022-09-23T13:52:59.213Z,12.25
2022-09-23T13:55:34.258Z,13.00
2022-09-23T13:58:07.897Z,12.90
2022-09-23T14:00:39.108Z,14.10
2022-09-23T14:03:33.668Z,14.18
2022-09-23T14:06:11.397Z,14.55
2022-09-23T14:08:45.204Z,15.38
2022-09-23T14:11:22.283Z,14.73
2022-09-23T14:13:56.283Z,11.82
2022-09-23T14:16:27.931Z,12.73
2022-09-23T14:18:58.599Z,12.23
2022-09-23T14:21:29.563Z,13.40
2022-09-23T14:24:02.240Z,13.95
2022-09-23T14:26:33.047Z,13.63
2022-09-23T14:29:03.365Z,14.48
2022-09-23T14:31:34.257Z,15.88
2022-09-23T14:34:04.989Z,14.85
2022-09-23T14:36:55.393Z,15.32
2022-09-23T14:39:25.697Z,13.63
2022-09-23T14:41:57.829Z,14.55
2022-09-23T14:44:34.398Z,14.18
2022-09-23T14:47:07.013Z,14.65
2022-09-23T14:49:59.002Z,15.00
2022-09-23T14:52:29.262Z,16.65
2022-09-23T14:54:59.523Z,16.25
2022-09-23T14:57:30.549Z,14.18
2022-09-23T15:00:10.830Z,15.88
2022-09-23T15:02:43.634Z,14.93
2022-09-23T15:05:15.698Z,14.45
2022-09-23T15:07:46.584Z,16.23
2022-09-23T15:10:22.108Z,13.63
2022-09-23T15:12:53.028Z,13.32
2022-09-23T15:15:26.366Z,13.43
2022-09-23T15:17:56.728Z,11.10
2022-09-23T15:20:27.602Z,12.85
2022-09-23T15:23:02.337Z,12.40
2022-09-23T15:25:36.877Z,12.40
2022-09-23T15:28:10.830Z,13.80
2022-09-23T15:30:41.198Z,13.55
2022-09-23T15:33:16.406Z,15.35
2022-09-23T15:35:49.880Z,14.20
2022-09-23T15:38:20.192Z,14.75
2022-09-23T15:40:50.763Z,15.05
2022-09-23T15:43:22.138Z,12.30
2022-09-23T15:45:55.290Z,13.25
2022-09-23T15:48:26.943Z,11.98
2022-09-23T15:50:58.055Z,13.18
2022-09-23T15:53:29.355Z,13.23
2022-09-23T15:55:59.894Z,12.75
2022-09-23T15:58:30.066Z,11.80
2022-09-23T16:01:00.633Z,11.50
2022-09-23T16:03:31.853Z,13.10
2022-09-23T16:06:05.291Z,12.95
2022-09-23T16:08:35.580Z,13.18
2022-09-23T16:11:08.175Z,12.25
2022-09-23T16:13:38.573Z,15.25
2022-09-23T16:16:10.295Z,14.48
2022-09-23T16:18:43.403Z,14.73
2022-09-23T16:21:15.397Z,15.25
2022-09-23T16:23:48.665Z,14.70
2022-09-23T16:26:20.635Z,11.38
2022-09-23T16:28:50.990Z,10.68
2022-09-23T16:31:21.414Z,11.90
2022-09-23T16:33:52.556Z,11.38
2022-09-23T16:36:30.094Z,10.55
2022-09-23T16:39:00.883Z,11.57
2022-09-23T16:41:32.619Z,11.48
2022-09-23T16:44:03.578Z,11.50
2022-09-23T16:46:34.114Z,11.07
2022-09-23T16:49:04.493Z,10.90
2022-09-23T16:51:44.020Z,11.23
2022-09-23T16:54:14.913Z,11.40
2022-09-23T16:56:48.387Z,10.77
2022-09-23T16:59:18.444Z,11.38
2022-09-23T17:02:06.853Z,10.90
2022-09-23T17:04:37.235Z,11.45
2022-09-23T17:07:07.198Z,12.25
2022-09-23T17:09:37.229Z,14.18
2022-09-23T17:12:10.492Z,13.70
2022-09-23T17:14:40.830Z,15.77
2022-09-23T17:17:10.747Z,13.25
2022-09-23T17:19:42.653Z,11.70
2022-09-23T17:22:12.808Z,11.02
2022-09-23T17:24:43.977Z,9.75
2022-09-23T17:27:14.597Z,9.50
2022-09-23T17:29:45.707Z,8.73
2022-09-23T17:32:15.979Z,7.70
2022-09-23T17:34:45.975Z,8.25
2022-09-23T17:37:15.981Z,8.40
2022-09-23T17:39:45.996Z,6.97
2022-09-23T17:42:16.486Z,6.55
2022-09-23T17:44:47.149Z,7.60
2022-09-23T17:47:17.310Z,6.00
2022-09-23T17:49:51.121Z,6.43
2022-09-23T17:52:21.332Z,6.38
2022-09-23T17:54:51.355Z,6.43
2022-09-23T17:57:21.337Z,5.60
2022-09-23T17:59:54.825Z,5.72
2022-09-23T18:02:24.989Z,6.22
2022-09-23T18:04:55.098Z,5.72
2022-09-23T18:07:25.323Z,6.72
2022-09-23T18:09:55.451Z,7.85
2022-09-23T18:12:25.507Z,7.55
2022-09-23T18:14:55.557Z,6.28
2022-09-23T18:17:25.524Z,6.40
2022-09-23T18:19:55.901Z,5.80
2022-09-23T18:22:25.989Z,5.90
2022-09-23T18:24:55.986Z,7.18
2022-09-23T18:27:25.994Z,6.00
2022-09-23T18:29:56.260Z,6.72
2022-09-23T18:32:26.187Z,9.13
2022-09-23T18:34:56.159Z,8.02
2022-09-23T18:37:26.080Z,5.25
2022-09-23T18:39:56.726Z,6.43
2022-09-23T18:42:28.596Z,5.55
2022-09-23T18:44:59.625Z,6.72
2022-09-23T18:47:48.490Z,5.20
2022-09-23T18:50:36.915Z,5.85
2022-09-23T18:53:06.945Z,7.80
2022-09-23T18:55:37.313Z,8.02
2022-09-23T18:58:08.649Z,6.88
2022-09-23T19:00:38.991Z,6.32
2022-09-23T19:03:09.352Z,8.30
2022-09-23T19:05:39.599Z,10.05
2022-09-23T19:08:10.060Z,7.97
2022-09-23T19:10:40.606Z,9.50
2022-09-23T19:13:10.885Z,9.13
2022-09-23T19:15:41.692Z,8.40
2022-09-23T19:18:11.652Z,9.85
2022-09-23T19:20:50.631Z,7.07
2022-09-23T19:23:21.802Z,7.35
2022-09-23T19:25:52.368Z,7.22
2022-09-23T19:28:22.393Z,6.53
2022-09-23T19:30:52.384Z,6.07
2022-09-23T19:33:22.333Z,4.93
2022-09-23T19:35:52.991Z,4.68
2022-09-23T19:38:23.810Z,4.55
2022-09-23T19:40:55.023Z,6.03
2022-09-23T19:43:26.323Z,4.28
2022-09-23T19:45:57.021Z,4.68
2022-09-23T19:48:27.191Z,4.75
2022-09-23T19:50:57.207Z,5.35
2022-09-23T19:53:28.332Z,5.90
2022-09-23T19:55:59.085Z,5.15
2022-09-23T19:58:29.218Z,5.53
2022-09-23T20:00:59.211Z,6.60
2022-09-23T20:03:29.700Z,5.85
2022-09-23T20:06:00.744Z,6.05
2022-09-23T20:08:30.911Z,6.00
2022-09-23T20:11:00.917Z,6.47
2022-09-23T20:13:32.574Z,5.38
2022-09-23T20:16:02.711Z,5.63
2022-09-23T20:18:32.786Z,4.53
2022-09-23T20:21:02.768Z,5.57
2022-09-23T20:23:32.879Z,4.72
2022-09-23T20:26:21.795Z,5.50
2022-09-23T20:28:51.760Z,5.72
2022-09-23T20:31:25.617Z,5.22
2022-09-23T20:33:59.935Z,5.03
2022-09-23T20:36:31.165Z,4.82
2022-09-23T20:39:02.166Z,4.72
2022-09-23T20:41:32.746Z,5.28
2022-09-23T20:44:03.581Z,5.03
2022-09-23T20:46:34.261Z,6.72
2022-09-23T20:49:04.794Z,5.45
2022-09-23T20:51:35.005Z,5.63
2022-09-23T20:54:05.563Z,4.90
2022-09-23T20:56:35.937Z,5.00
2022-09-23T20:59:06.406Z,5.72
2022-09-23T21:01:38.276Z,5.80
2022-09-23T21:04:10.760Z,6.63
2022-09-23T21:06:41.009Z,5.95
2022-09-23T21:09:10.937Z,5.10
2022-09-23T21:11:41.546Z,5.47
2022-09-23T21:14:11.671Z,5.85
2022-09-23T21:16:41.722Z,5.32
2022-09-23T21:19:11.776Z,5.32
2022-09-23T21:21:42.436Z,4.85
2022-09-23T21:24:40.109Z,6.10
2022-09-23T21:27:05.159Z,5.03
2022-09-23T21:29:35.592Z,6.70
2022-09-23T21:32:06.418Z,4.82
2022-09-23T21:34:36.682Z,4.25
2022-09-23T21:37:07.504Z,5.05
2022-09-23T21:39:37.501Z,5.25
2022-09-23T21:42:08.398Z,5.50
2022-09-23T21:44:38.574Z,6.80
2022-09-23T21:47:08.628Z,6.28
2022-09-23T21:49:38.683Z,5.72
2022-09-23T21:52:09.233Z,5.45
2022-09-23T21:54:39.452Z,5.78
2022-09-23T21:57:09.408Z,6.78
2022-09-23T21:59:39.507Z,4.60
2022-09-23T22:02:09.464Z,4.10
2022-09-23T22:04:39.868Z,4.65
2022-09-23T22:07:10.049Z,3.05
2022-09-23T22:09:41.314Z,3.65
2022-09-23T22:12:14.033Z,4.35
2022-09-23T22:14:44.537Z,3.75
2022-09-23T22:17:15.683Z,4.15
2022-09-23T22:19:47.310Z,3.22
2022-09-23T22:22:18.941Z,4.18
2022-09-23T22:24:49.173Z,3.53
2022-09-23T22:27:19.921Z,4.22
2022-09-23T22:30:09.821Z,4.28
2022-09-23T22:32:42.811Z,4.65
2022-09-23T22:35:19.425Z,4.80
2022-09-23T22:37:49.599Z,4.47
2022-09-23T22:40:20.430Z,4.97
2022-09-23T22:42:50.923Z,4.35
2022-09-23T22:45:21.012Z,4.28
2022-09-23T22:47:54.516Z,5.07
2022-09-23T22:50:25.411Z,3.40
2022-09-23T22:52:55.670Z,3.53
2022-09-23T22:55:26.525Z,4.05
2022-09-23T22:57:56.826Z,4.88
2022-09-23T23:00:29.092Z,4.50
2022-09-23T23:02:59.606Z,4.00
2022-09-23T23:05:30.285Z,3.45
2022-09-23T23:08:00.663Z,3.35
2022-09-23T23:10:31.216Z,3.47
2022-09-23T23:13:02.827Z,5.72
2022-09-23T23:15:32.867Z,5.07
2022-09-23T23:18:02.843Z,3.20
2022-09-23T23:20:33.572Z,4.45
2022-09-23T23:23:03.860Z,4.75
2022-09-23T23:25:34.129Z,6.00
2022-09-23T23:28:06.934Z,4.00
2022-09-23T23:30:38.115Z,5.40
2022-09-23T23:33:08.280Z,4.50
2022-09-23T23:35:38.352Z,5.03
2022-09-23T23:38:09.115Z,5.15
2022-09-23T23:40:40.013Z,4.47
2022-09-23T23:43:10.906Z,4.25
2022-09-23T23:45:41.196Z,4.18
2022-09-23T23:48:11.277Z,3.88
2022-09-23T23:50:42.724Z,3.28
2022-09-23T23:53:13.186Z,4.43
2022-09-23T23:55:43.478Z,4.05
2022-09-23T23:58:14.080Z,3.45
